Terminal Aerodrome Forecast
Issued by NWS

Home | Current Version | Previous Version | Text Only | Print | Product List | Glossary On
Versions: 1 2 3 4 5 6 7 8 9 10 11 12 13
000
FTUS42 TJSJ 172300 RRA
TAFKPK
TAF
TKPK 172343Z 1800/1824 01005KT P6SM FEW019
     FM181330 05008KT P6SM FEW021
     FM182300 06006KT P6SM FEW025
      AMD NOT SKED 1802/1811=

USA.gov is the U.S. government's official web portal to all federal, state and local government web resources and services.